Time;durP1;ratioP1;P1;durP2;ratioP2;P2;SDS_P1;SDS_P2;PMS_P1;PMS_P2;Temp;Humidity;BMP_temperature;BMP_pressure;BME280_temperature;BME280_humidity;BME280_pressure;Samples;Min_cycle;Max_cycle;Signal;HPM_P1;HPM_P2
2021/07/14 00:00:48;;;;;;;15.55;8.45;;;17.20;99.90;;;;;;4938165;29;20175;-84
2021/07/14 00:03:14;;;;;;;10.05;7.97;;;17.20;99.90;;;;;;4938169;29;20206;-84
2021/07/14 00:05:40;;;;;;;12.32;8.88;;;17.30;99.90;;;;;;4937885;29;20238;-86
2021/07/14 00:08:08;;;;;;;11.88;8.57;;;17.40;99.90;;;;;;4938151;29;20729;-81
2021/07/14 00:10:35;;;;;;;11.90;8.60;;;17.50;99.90;;;;;;4952782;29;20175;-83
2021/07/14 00:13:23;;;;;;;13.35;8.60;;;17.40;99.90;;;;;;4937912;29;20191;-81
2021/07/14 00:23:36;;;;;;;10.65;8.63;;;17.10;99.90;;;;;;4938041;29;20187;-84
2021/07/14 00:26:03;;;;;;;14.68;8.20;;;17.40;99.90;;;;;;4952672;29;20179;-83
2021/07/14 00:28:29;;;;;;;13.45;7.65;;;17.40;99.90;;;;;;4952456;29;20178;-82
2021/07/14 00:30:57;;;;;;;9.07;8.20;;;17.40;99.90;;;;;;4944855;29;20183;-82
2021/07/14 00:33:24;;;;;;;12.68;8.18;;;17.40;99.90;;;;;;4937701;29;20293;-83
2021/07/14 00:35:49;;;;;;;13.23;7.47;;;17.20;99.90;;;;;;4936936;29;20517;-83
2021/07/14 00:38:15;;;;;;;13.52;8.25;;;17.20;99.90;;;;;;4936645;29;20171;-86
2021/07/14 00:40:41;;;;;;;8.95;7.70;;;17.00;99.90;;;;;;4937652;29;20266;-83
2021/07/14 00:43:07;;;;;;;8.60;7.35;;;17.10;99.90;;;;;;4936706;29;20175;-84
2021/07/14 00:45:34;;;;;;;13.55;7.63;;;17.10;99.90;;;;;;4936475;29;20214;-85
2021/07/14 00:48:01;;;;;;;21.60;8.00;;;17.00;99.90;;;;;;4936898;29;20167;-86
2021/07/14 00:50:27;;;;;;;17.98;7.18;;;16.90;99.90;;;;;;4936024;29;20234;-87
2021/07/14 00:52:53;;;;;;;13.63;8.02;;;16.80;99.90;;;;;;4936676;29;20183;-84
2021/07/14 00:55:18;;;;;;;11.60;8.73;;;16.80;99.90;;;;;;4936381;29;20203;-85
2021/07/14 00:57:44;;;;;;;18.77;9.00;;;16.80;99.90;;;;;;4936644;29;20167;-87
2021/07/14 01:00:12;;;;;;;17.95;9.18;;;16.90;99.90;;;;;;4936432;29;20233;-86
2021/07/14 01:02:39;;;;;;;14.73;8.23;;;16.90;99.90;;;;;;4936075;29;20171;-85
2021/07/14 01:05:07;;;;;;;15.07;9.60;;;16.90;99.90;;;;;;4936454;29;20191;-86
2021/07/14 01:08:00;;;;;;;17.85;8.75;;;17.00;99.90;;;;;;4936490;29;20183;-88
2021/07/14 01:10:48;;;;;;;17.02;9.35;;;17.00;99.90;;;;;;4937266;29;20515;-86
2021/07/14 01:13:44;;;;;;;21.15;8.82;;;17.00;99.90;;;;;;4937201;29;20206;-83
2021/07/14 01:16:19;;;;;;;13.35;8.85;;;16.90;99.90;;;;;;4922455;29;20187;-84
2021/07/14 01:19:13;;;;;;;18.45;9.75;;;16.90;99.90;;;;;;4935790;29;20235;-86
2021/07/14 01:21:44;;;;;;;10.45;9.38;;;17.00;99.90;;;;;;4936234;29;20185;-86
2021/07/14 01:24:21;;;;;;;17.15;9.80;;;17.10;99.90;;;;;;4935926;29;20187;-83
2021/07/14 01:27:06;;;;;;;9.95;8.73;;;17.20;99.90;;;;;;4937186;29;20174;-84
2021/07/14 01:29:56;;;;;;;13.20;9.02;;;17.30;99.90;;;;;;4935615;29;20187;-86
2021/07/14 01:32:28;;;;;;;17.48;9.02;;;17.20;99.90;;;;;;4937021;29;20167;-84
2021/07/14 01:35:10;;;;;;;14.27;8.73;;;17.20;99.90;;;;;;4937146;29;20226;-84
2021/07/14 01:37:37;;;;;;;14.70;8.98;;;17.30;99.90;;;;;;4935664;29;20171;-87
2021/07/14 01:40:05;;;;;;;16.08;8.98;;;17.30;99.90;;;;;;4935437;29;20518;-83
2021/07/14 01:42:32;;;;;;;20.25;9.45;;;17.30;99.90;;;;;;4936851;29;20178;-83
2021/07/14 01:45:00;;;;;;;15.25;9.52;;;17.30;99.90;;;;;;4936280;29;20203;-85
2021/07/14 01:47:27;;;;;;;12.10;8.80;;;17.30;99.90;;;;;;4935648;29;20191;-82
2021/07/14 01:49:56;;;;;;;13.10;8.80;;;17.30;99.90;;;;;;4935640;29;20552;-85
2021/07/14 01:52:24;;;;;;;12.55;9.88;;;17.20;99.90;;;;;;4935342;29;20254;-82
2021/07/14 01:54:53;;;;;;;15.18;9.95;;;17.10;99.90;;;;;;4935119;29;20211;-87
2021/07/14 01:57:21;;;;;;;13.93;9.68;;;17.10;99.90;;;;;;4936678;29;20262;-86
2021/07/14 01:59:47;;;;;;;15.82;9.85;;;17.20;99.90;;;;;;4935159;29;20264;-87
2021/07/14 02:02:16;;;;;;;18.77;9.93;;;17.20;99.90;;;;;;4936419;29;20211;-84
2021/07/14 02:04:42;;;;;;;16.75;10.05;;;17.00;99.90;;;;;;4935342;29;20214;-84
2021/07/14 02:07:21;;;;;;;15.32;9.10;;;17.00;99.90;;;;;;4936161;29;20203;-83
2021/07/14 02:09:47;;;;;;;9.48;8.35;;;17.00;99.90;;;;;;4934880;29;20182;-84
2021/07/14 02:12:19;;;;;;;16.33;9.00;;;17.10;99.90;;;;;;4936116;29;20176;-84
2021/07/14 02:14:46;;;;;;;14.80;9.82;;;17.20;99.90;;;;;;4934855;29;20322;-86
2021/07/14 02:17:15;;;;;;;18.38;9.98;;;17.10;99.90;;;;;;4936247;29;20163;-84
2021/07/14 02:19:48;;;;;;;19.50;8.68;;;17.10;99.90;;;;;;4934596;29;20226;-85
2021/07/14 02:22:13;;;;;;;13.23;9.35;;;17.00;99.90;;;;;;4934736;29;20171;-86
2021/07/14 02:24:39;;;;;;;17.98;8.30;;;17.00;99.90;;;;;;4934635;29;20234;-84
2021/07/14 02:27:06;;;;;;;15.77;9.02;;;17.00;99.90;;;;;;4950936;29;20238;-84
2021/07/14 02:29:39;;;;;;;15.00;9.77;;;17.10;99.90;;;;;;4936136;29;20171;-84
2021/07/14 02:32:06;;;;;;;15.55;8.88;;;17.20;99.90;;;;;;4950954;29;20218;-87
2021/07/14 02:34:32;;;;;;;9.60;8.35;;;17.30;99.90;;;;;;4950838;29;20245;-87
2021/07/14 02:37:00;;;;;;;10.52;8.18;;;17.40;99.90;;;;;;4935847;29;20652;-84
2021/07/14 02:39:26;;;;;;;13.32;8.88;;;17.40;99.90;;;;;;4950521;29;20601;-86
2021/07/14 02:41:57;;;;;;;13.55;7.88;;;17.30;99.90;;;;;;4950240;29;20182;-87
2021/07/14 02:44:26;;;;;;;16.80;9.05;;;17.20;99.90;;;;;;4950287;29;20330;-84
2021/07/14 02:46:56;;;;;;;16.65;8.32;;;17.20;99.90;;;;;;4950291;29;20186;-83
2021/07/14 02:49:25;;;;;;;16.58;9.00;;;17.10;99.90;;;;;;4935410;29;20171;-84
2021/07/14 02:51:52;;;;;;;8.73;7.90;;;17.20;99.90;;;;;;4950229;29;20201;-83
2021/07/14 02:54:22;;;;;;;15.25;8.90;;;17.30;99.90;;;;;;4950221;29;20699;-84
2021/07/14 02:56:51;;;;;;;19.38;9.77;;;17.20;99.90;;;;;;4935616;29;20616;-85
2021/07/14 02:59:23;;;;;;;18.80;8.88;;;17.40;99.90;;;;;;4950112;29;20572;-86
2021/07/14 03:01:50;;;;;;;16.65;9.93;;;17.40;99.90;;;;;;4935489;29;20167;-83
2021/07/14 03:04:18;;;;;;;15.20;9.60;;;17.40;99.90;;;;;;4935622;29;20226;-87
2021/07/14 03:06:44;;;;;;;14.45;9.40;;;17.50;99.90;;;;;;4935819;29;20222;-83
2021/07/14 03:09:11;;;;;;;20.48;9.82;;;17.60;99.90;;;;;;4935333;29;20691;-83
2021/07/14 03:11:42;;;;;;;14.68;9.90;;;17.70;99.90;;;;;;4950334;29;20185;-83
2021/07/14 03:14:14;;;;;;;24.20;9.98;;;17.60;99.90;;;;;;4952952;28;20238;-84
2021/07/14 03:16:42;;;;;;;18.00;9.57;;;17.60;99.90;;;;;;4954094;29;20644;-86
2021/07/14 03:19:10;;;;;;;17.20;10.73;;;17.60;99.90;;;;;;4954149;29;20175;-84
2021/07/14 03:21:37;;;;;;;17.98;10.98;;;17.50;99.90;;;;;;4937833;29;20184;-84
2021/07/14 03:24:06;;;;;;;20.08;11.02;;;17.60;99.90;;;;;;4937904;29;20750;-86
2021/07/14 03:26:32;;;;;;;19.83;10.40;;;17.60;99.90;;;;;;4938062;29;20531;-84
2021/07/14 03:28:59;;;;;;;27.63;11.32;;;17.60;99.90;;;;;;4938006;29;20176;-84
2021/07/14 03:31:25;;;;;;;18.70;11.15;;;17.70;99.90;;;;;;4939167;29;20175;-84
2021/07/14 03:33:51;;;;;;;19.00;11.15;;;17.70;99.90;;;;;;4953548;29;20206;-83
2021/07/14 03:36:17;;;;;;;24.13;11.68;;;17.60;99.90;;;;;;4939271;29;20504;-86
2021/07/14 03:38:43;;;;;;;26.45;11.70;;;17.60;99.90;;;;;;4938947;29;20647;-83
2021/07/14 03:41:10;;;;;;;16.25;12.02;;;17.50;99.90;;;;;;4937521;29;20179;-81
2021/07/14 03:43:36;;;;;;;23.10;12.38;;;17.60;99.90;;;;;;4937572;29;20175;-87
2021/07/14 03:46:04;;;;;;;17.88;12.10;;;17.60;99.90;;;;;;4938663;29;20551;-85
2021/07/14 03:48:32;;;;;;;19.98;11.25;;;17.60;99.90;;;;;;4937498;29;20170;-83
2021/07/14 03:51:00;;;;;;;19.65;12.20;;;17.70;99.90;;;;;;4937898;29;20179;-84
2021/07/14 03:53:26;;;;;;;17.55;10.88;;;17.70;99.90;;;;;;4938556;29;20226;-86
2021/07/14 03:55:52;;;;;;;26.40;11.55;;;17.80;99.90;;;;;;4937517;29;20621;-86
2021/07/14 03:58:20;;;;;;;23.33;11.98;;;17.90;99.90;;;;;;4936884;29;20183;-82
2021/07/14 04:00:47;;;;;;;23.67;11.10;;;17.80;99.90;;;;;;4938259;29;20652;-82
2021/07/14 04:03:13;;;;;;;20.58;10.40;;;17.80;99.90;;;;;;4937118;29;20211;-83
2021/07/14 04:05:44;;;;;;;17.80;10.38;;;17.70;99.90;;;;;;4938552;29;20206;-81
2021/07/14 04:08:14;;;;;;;17.67;11.23;;;17.70;99.90;;;;;;4937181;29;20285;-81
2021/07/14 04:10:40;;;;;;;21.85;10.70;;;17.60;99.90;;;;;;4938191;29;20163;-82
2021/07/14 04:13:05;;;;;;;29.73;10.52;;;17.70;99.90;;;;;;4936895;29;20238;-85
2021/07/14 04:15:31;;;;;;;27.48;12.20;;;17.60;99.90;;;;;;4936755;29;20199;-83
2021/07/14 04:17:57;;;;;;;26.48;10.85;;;17.60;99.90;;;;;;4936862;29;20175;-81
2021/07/14 04:20:22;;;;;;;29.58;11.48;;;17.60;99.90;;;;;;4936892;29;20259;-83
2021/07/14 04:22:48;;;;;;;11.23;9.57;;;17.60;99.90;;;;;;4936488;29;20175;-82
2021/07/14 04:25:15;;;;;;;20.00;11.00;;;17.70;99.90;;;;;;4951431;28;20186;-84
2021/07/14 04:27:40;;;;;;;26.00;11.98;;;17.60;99.90;;;;;;4936802;29;20270;-83
2021/07/14 04:30:07;;;;;;;17.17;10.80;;;17.70;99.90;;;;;;4936603;29;20222;-82
2021/07/14 04:32:32;;;;;;;21.55;10.80;;;17.70;99.90;;;;;;4936798;29;20175;-83
2021/07/14 04:34:58;;;;;;;27.42;12.05;;;17.70;99.90;;;;;;4936727;29;20302;-85
2021/07/14 04:37:24;;;;;;;19.65;11.25;;;17.70;99.90;;;;;;4937070;29;20171;-86
2021/07/14 04:39:49;;;;;;;25.70;10.88;;;17.60;99.90;;;;;;4936611;29;20647;-81
2021/07/14 04:42:15;;;;;;;26.38;11.18;;;17.50;99.90;;;;;;4937673;29;20175;-83
2021/07/14 04:44:58;;;;;;;21.48;11.73;;;17.50;99.90;;;;;;4936131;29;20210;-83
2021/07/14 04:47:24;;;;;;;36.67;12.27;;;17.50;99.90;;;;;;4937443;29;21199;-85
2021/07/14 04:49:49;;;;;;;29.63;11.52;;;17.50;99.90;;;;;;4936190;29;20242;-85
2021/07/14 04:52:15;;;;;;;29.98;12.88;;;17.40;99.90;;;;;;4937190;29;20191;-82
2021/07/14 04:54:44;;;;;;;24.80;12.23;;;17.40;99.90;;;;;;4935693;29;20246;-83
2021/07/14 04:57:10;;;;;;;23.67;11.73;;;17.40;99.90;;;;;;4936110;29;20644;-83
2021/07/14 04:59:36;;;;;;;32.55;13.00;;;17.40;99.90;;;;;;4936066;29;20615;-84
2021/07/14 05:02:06;;;;;;;25.38;11.90;;;17.50;99.90;;;;;;4937280;29;20195;-82
2021/07/14 05:04:33;;;;;;;27.55;11.93;;;17.50;99.90;;;;;;4937775;29;20206;-83
2021/07/14 05:06:58;;;;;;;30.30;12.70;;;17.60;99.90;;;;;;4936858;29;20244;-82
2021/07/14 05:09:24;;;;;;;25.00;12.93;;;17.70;99.90;;;;;;4936877;29;20175;-82
2021/07/14 05:11:50;;;;;;;29.20;12.23;;;17.60;99.90;;;;;;4937034;29;20175;-83
2021/07/14 05:14:15;;;;;;;32.50;12.90;;;17.50;99.90;;;;;;4935712;29;20305;-83
2021/07/14 05:16:41;;;;;;;24.35;12.23;;;17.40;99.90;;;;;;4936697;29;20174;-82
2021/07/14 05:19:08;;;;;;;21.85;12.57;;;17.40;99.90;;;;;;4935804;29;20233;-83
2021/07/14 05:21:33;;;;;;;27.17;13.13;;;17.50;99.90;;;;;;4935725;29;20202;-84
2021/07/14 05:23:59;;;;;;;26.27;12.18;;;17.60;99.90;;;;;;4935690;29;20293;-83
2021/07/14 05:26:25;;;;;;;28.10;11.90;;;17.80;99.90;;;;;;4936935;29;20237;-83
2021/07/14 05:28:51;;;;;;;32.63;12.85;;;17.70;99.90;;;;;;4935383;29;20195;-83
2021/07/14 05:31:17;;;;;;;19.60;11.93;;;17.60;99.90;;;;;;4934840;29;20197;-82
2021/07/14 05:33:43;;;;;;;29.58;13.40;;;17.60;99.90;;;;;;4935136;29;20310;-84
2021/07/14 05:36:11;;;;;;;28.38;13.75;;;17.60;99.90;;;;;;4934797;29;20221;-82
2021/07/14 05:38:38;;;;;;;25.13;12.63;;;17.60;99.90;;;;;;4936477;29;20171;-84
2021/07/14 05:41:03;;;;;;;25.13;12.43;;;17.70;99.90;;;;;;4935767;29;20249;-82
2021/07/14 05:43:29;;;;;;;24.20;13.70;;;17.80;99.90;;;;;;4936185;29;20316;-82
2021/07/14 05:45:55;;;;;;;27.48;13.73;;;17.70;99.90;;;;;;4934687;29;20190;-84
2021/07/14 05:48:21;;;;;;;30.15;13.45;;;17.60;99.90;;;;;;4936201;29;20644;-80
2021/07/14 05:50:47;;;;;;;24.42;13.48;;;17.50;99.90;;;;;;4935301;29;20191;-83
2021/07/14 05:53:13;;;;;;;18.17;12.45;;;17.40;99.90;;;;;;4936060;29;20222;-80
2021/07/14 05:55:39;;;;;;;26.25;13.85;;;17.40;99.90;;;;;;4934904;29;20597;-83
2021/07/14 05:58:04;;;;;;;29.58;13.48;;;17.40;99.90;;;;;;4936470;29;20238;-84
2021/07/14 06:00:30;;;;;;;40.03;13.82;;;17.50;99.90;;;;;;4936134;29;20557;-85
2021/07/14 06:02:56;;;;;;;22.92;12.88;;;17.60;99.90;;;;;;4936055;29;20564;-85
2021/07/14 06:05:22;;;;;;;27.42;12.43;;;17.40;99.90;;;;;;4934417;29;20214;-86
2021/07/14 06:07:48;;;;;;;26.77;12.38;;;17.40;99.90;;;;;;4935884;29;20171;-83
2021/07/14 06:10:14;;;;;;;21.85;12.50;;;17.40;99.90;;;;;;4935611;29;20181;-80
2021/07/14 06:12:40;;;;;;;25.27;11.15;;;17.50;99.90;;;;;;4935347;29;20179;-80
2021/07/14 06:15:06;;;;;;;26.23;11.27;;;17.50;99.90;;;;;;4935277;29;20218;-80
2021/07/14 06:17:32;;;;;;;17.33;11.00;;;17.50;99.90;;;;;;4935654;29;20178;-78
2021/07/14 06:19:58;;;;;;;20.08;10.23;;;17.50;99.90;;;;;;4934268;29;20171;-80
2021/07/14 06:22:24;;;;;;;17.13;9.30;;;17.50;99.90;;;;;;4933640;29;20208;-79
2021/07/14 06:24:50;;;;;;;13.68;9.55;;;17.30;99.90;;;;;;4935119;29;20187;-79
2021/07/14 06:27:16;;;;;;;15.45;10.38;;;17.20;99.90;;;;;;4934107;29;20167;-78
2021/07/14 06:29:42;;;;;;;14.07;9.60;;;17.30;99.90;;;;;;4934843;29;20171;-79
2021/07/14 06:32:07;;;;;;;14.35;8.68;;;17.20;99.90;;;;;;4935248;29;20238;-80
2021/07/14 06:34:33;;;;;;;20.88;9.35;;;17.30;99.90;;;;;;4934743;29;20246;-82
2021/07/14 06:36:59;;;;;;;13.48;9.35;;;17.30;99.90;;;;;;4934736;29;20258;-82
2021/07/14 06:39:24;;;;;;;18.05;8.65;;;17.30;99.90;;;;;;4934838;29;20623;-79
2021/07/14 06:41:50;;;;;;;12.48;7.13;;;17.30;99.90;;;;;;4935314;29;20189;-79
2021/07/14 06:44:16;;;;;;;14.13;8.68;;;17.40;99.90;;;;;;4934889;29;20195;-82
2021/07/14 06:46:42;;;;;;;13.25;8.52;;;17.40;99.90;;;;;;4932999;29;20216;-78
2021/07/14 06:49:08;;;;;;;9.30;8.13;;;17.40;99.90;;;;;;4915793;29;20697;-77
2021/07/14 06:51:33;;;;;;;12.77;8.30;;;17.40;99.90;;;;;;4934025;29;20254;-80
2021/07/14 06:53:59;;;;;;;18.15;8.25;;;17.20;99.90;;;;;;4934680;29;20234;-79
2021/07/14 06:56:25;;;;;;;15.15;8.88;;;17.40;99.90;;;;;;4935052;29;20206;-78
2021/07/14 06:58:51;;;;;;;15.07;10.00;;;17.50;99.90;;;;;;4934627;29;20203;-78
2021/07/14 07:01:16;;;;;;;15.48;8.48;;;17.50;99.90;;;;;;4934707;29;20528;-79
2021/07/14 07:03:42;;;;;;;10.13;7.70;;;17.50;99.90;;;;;;4934759;29;20187;-80
2021/07/14 07:06:08;;;;;;;11.07;8.68;;;17.50;99.90;;;;;;4934682;29;20178;-80
2021/07/14 07:08:34;;;;;;;9.25;8.30;;;17.40;99.90;;;;;;4934836;29;20171;-80
2021/07/14 07:11:00;;;;;;;14.63;8.25;;;17.40;99.90;;;;;;4933476;29;20266;-80
2021/07/14 07:13:27;;;;;;;10.80;7.13;;;17.40;99.90;;;;;;4933248;29;20207;-79
2021/07/14 07:15:53;;;;;;;12.77;7.82;;;17.40;99.90;;;;;;4933431;29;20246;-80
2021/07/14 07:18:21;;;;;;;11.05;7.53;;;17.50;99.90;;;;;;4934802;29;20299;-79
2021/07/14 07:20:50;;;;;;;11.23;7.05;;;17.60;99.90;;;;;;4933182;29;20761;-80
2021/07/14 07:23:15;;;;;;;10.20;6.65;;;17.70;99.90;;;;;;4935132;29;20172;-79
2021/07/14 07:25:42;;;;;;;13.48;6.72;;;17.60;99.90;;;;;;4934832;29;20546;-80
2021/07/14 07:28:16;;;;;;;10.10;7.50;;;17.60;99.90;;;;;;4934626;29;20164;-80
2021/07/14 07:30:42;;;;;;;14.23;6.68;;;17.60;99.90;;;;;;4934893;29;20173;-83
2021/07/14 07:33:08;;;;;;;7.53;6.82;;;17.60;99.90;;;;;;4935003;29;20171;-81
2021/07/14 07:35:34;;;;;;;7.75;6.95;;;17.70;99.90;;;;;;4933565;29;20199;-82
2021/07/14 07:38:00;;;;;;;13.07;7.90;;;17.70;99.90;;;;;;4934428;29;20171;-82
2021/07/14 07:40:27;;;;;;;10.07;7.78;;;17.70;99.90;;;;;;4934426;29;20178;-81
2021/07/14 07:42:53;;;;;;;7.63;6.93;;;17.70;99.90;;;;;;4934853;29;20257;-81
2021/07/14 07:45:19;;;;;;;12.65;7.95;;;17.70;99.90;;;;;;4934522;29;20683;-82
2021/07/14 07:47:57;;;;;;;10.13;7.57;;;17.70;99.90;;;;;;4934600;29;20167;-81
2021/07/14 07:50:22;;;;;;;10.75;7.75;;;17.80;99.90;;;;;;4934520;29;20179;-82
2021/07/14 07:52:48;;;;;;;16.98;8.25;;;17.90;99.90;;;;;;4934730;29;20172;-82
2021/07/14 07:55:14;;;;;;;18.55;7.75;;;17.80;99.90;;;;;;4934409;29;20302;-83
2021/07/14 07:57:42;;;;;;;19.25;8.63;;;17.80;99.90;;;;;;4934286;29;20159;-78
2021/07/14 08:00:13;;;;;;;8.68;7.78;;;17.90;99.90;;;;;;4936329;29;20171;-79
2021/07/14 08:02:39;;;;;;;13.60;7.38;;;17.70;99.90;;;;;;4937941;29;20182;-80
2021/07/14 08:05:05;;;;;;;10.00;8.43;;;17.70;99.90;;;;;;4936707;29;20194;-80
2021/07/14 08:07:31;;;;;;;12.07;7.75;;;17.70;99.90;;;;;;4936617;29;20197;-80
2021/07/14 08:09:57;;;;;;;12.55;7.75;;;17.70;99.90;;;;;;4936834;29;20167;-80
2021/07/14 08:12:22;;;;;;;9.43;7.72;;;17.70;99.90;;;;;;4937939;29;20171;-80
2021/07/14 08:14:48;;;;;;;14.93;8.05;;;17.60;99.90;;;;;;4937605;29;20211;-80
2021/07/14 08:17:14;;;;;;;11.20;8.77;;;17.80;99.90;;;;;;4938159;29;20223;-81
2021/07/14 08:19:39;;;;;;;8.55;7.60;;;17.90;99.90;;;;;;4937779;29;20258;-80
2021/07/14 08:22:05;;;;;;;12.30;7.88;;;17.90;99.90;;;;;;4936371;29;20531;-81
2021/07/14 08:24:31;;;;;;;12.60;6.88;;;17.90;99.90;;;;;;4937569;29;20663;-80
2021/07/14 08:26:56;;;;;;;9.05;6.45;;;18.00;99.90;;;;;;4937617;29;20176;-81
2021/07/14 08:29:22;;;;;;;10.13;7.72;;;18.10;99.90;;;;;;4937589;29;20179;-81
2021/07/14 08:31:51;;;;;;;12.93;6.32;;;18.00;99.90;;;;;;4937454;29;20173;-81
2021/07/14 08:34:18;;;;;;;6.72;6.03;;;18.00;99.90;;;;;;4937237;29;20222;-81
2021/07/14 08:36:44;;;;;;;7.97;6.22;;;17.90;99.90;;;;;;4936369;29;20167;-81
2021/07/14 08:39:10;;;;;;;9.07;6.57;;;17.80;99.90;;;;;;4936923;29;20197;-81
2021/07/14 08:41:40;;;;;;;7.38;5.88;;;17.90;99.90;;;;;;4937278;29;20178;-81
2021/07/14 08:44:07;;;;;;;12.52;7.05;;;17.80;99.90;;;;;;4937458;29;20187;-80
2021/07/14 08:46:35;;;;;;;11.88;6.65;;;17.80;99.90;;;;;;4936738;29;20214;-83
2021/07/14 08:49:04;;;;;;;8.23;6.40;;;17.90;99.90;;;;;;4937327;29;20711;-81
2021/07/14 08:51:33;;;;;;;8.77;6.82;;;17.80;99.90;;;;;;4935987;29;20170;-83
2021/07/14 08:53:59;;;;;;;8.15;7.30;;;17.70;99.90;;;;;;4935472;29;20203;-80
2021/07/14 08:56:25;;;;;;;7.60;6.38;;;17.80;99.90;;;;;;4935513;29;20182;-81
2021/07/14 08:58:51;;;;;;;7.78;6.05;;;17.90;99.90;;;;;;4935222;29;20696;-81
2021/07/14 09:01:17;;;;;;;12.32;6.63;;;17.90;99.90;;;;;;4936810;29;20695;-80
2021/07/14 09:03:42;;;;;;;9.57;6.82;;;17.80;99.90;;;;;;4936634;29;20278;-81
2021/07/14 09:06:08;;;;;;;12.20;6.85;;;17.70;99.90;;;;;;4936798;29;20531;-80
2021/07/14 09:08:34;;;;;;;6.35;5.82;;;17.60;99.90;;;;;;4936532;29;20171;-81
2021/07/14 09:11:00;;;;;;;10.20;7.13;;;17.60;99.90;;;;;;4936231;29;20520;-83
2021/07/14 09:13:34;;;;;;;9.95;6.93;;;17.70;99.90;;;;;;4935747;29;20182;-81
2021/07/14 09:16:03;;;;;;;6.45;5.65;;;17.80;99.90;;;;;;4936614;29;20648;-81
2021/07/14 09:18:29;;;;;;;8.98;6.80;;;17.90;99.90;;;;;;4935242;29;20242;-82
2021/07/14 09:20:55;;;;;;;10.77;6.93;;;17.90;99.90;;;;;;4935173;29;20175;-81
2021/07/14 09:23:25;;;;;;;10.82;7.10;;;18.00;99.90;;;;;;4936557;29;20214;-82
2021/07/14 09:26:05;;;;;;;13.05;7.32;;;17.80;99.90;;;;;;4934912;29;20175;-81
2021/07/14 09:28:39;;;;;;;7.30;6.28;;;17.60;99.90;;;;;;4936411;29;20241;-81
2021/07/14 09:31:08;;;;;;;15.65;8.95;;;17.50;99.90;;;;;;4936033;29;20171;-82
2021/07/14 09:33:34;;;;;;;9.88;7.85;;;17.50;99.90;;;;;;4935068;29;20680;-81
2021/07/14 09:36:00;;;;;;;10.77;8.30;;;17.60;99.90;;;;;;4936155;29;20667;-82
2021/07/14 09:38:37;;;;;;;11.77;7.93;;;17.50;99.90;;;;;;4936583;29;20159;-82
2021/07/14 09:41:13;;;;;;;10.00;7.75;;;17.50;99.90;;;;;;4934968;29;20183;-81
2021/07/14 09:43:44;;;;;;;14.00;8.45;;;17.50;99.90;;;;;;4935591;29;20178;-82
2021/07/14 09:46:14;;;;;;;14.60;8.05;;;17.60;99.90;;;;;;4936273;29;20194;-83
2021/07/14 09:48:44;;;;;;;17.10;8.30;;;17.60;99.90;;;;;;4935739;29;20563;-81
2021/07/14 09:51:19;;;;;;;11.57;8.32;;;17.60;99.90;;;;;;4934363;29;20170;-81
2021/07/14 09:53:50;;;;;;;12.38;8.55;;;17.70;99.90;;;;;;4935718;29;20207;-81
2021/07/14 09:56:22;;;;;;;15.60;9.00;;;17.70;99.90;;;;;;4935730;29;20182;-82
2021/07/14 09:59:10;;;;;;;18.85;9.48;;;17.70;99.90;;;;;;4934489;29;20179;-82
2021/07/14 10:01:45;;;;;;;15.85;9.07;;;17.80;99.90;;;;;;4935668;29;20659;-82
2021/07/14 10:04:12;;;;;;;11.60;9.13;;;17.60;99.90;;;;;;4935495;29;20197;-80
2021/07/14 10:06:38;;;;;;;18.13;9.93;;;17.80;99.90;;;;;;4935597;29;20168;-81
2021/07/14 10:09:04;;;;;;;12.13;8.90;;;17.90;99.90;;;;;;4935803;29;20537;-82
2021/07/14 10:11:41;;;;;;;;;;;;;;;;;;;;;
2021/07/14 10:14:08;;;;;;;9.15;7.18;;;18.00;99.90;;;;;;4935440;29;20215;-81
2021/07/14 10:16:39;;;;;;;16.55;9.32;;;17.90;99.90;;;;;;4934274;29;20207;-82
2021/07/14 10:19:19;;;;;;;9.55;8.55;;;18.00;99.90;;;;;;4934827;29;20174;-81
2021/07/14 10:21:47;;;;;;;12.63;8.45;;;17.90;99.90;;;;;;4935566;29;20171;-83
2021/07/14 10:24:16;;;;;;;10.00;8.05;;;17.80;99.90;;;;;;4935324;29;20262;-81
2021/07/14 10:26:50;;;;;;;16.92;8.05;;;17.80;99.90;;;;;;4935752;29;20178;-85
2021/07/14 10:29:20;;;;;;;14.95;8.85;;;18.00;99.90;;;;;;4934818;29;20170;-80
2021/07/14 10:31:48;;;;;;;9.27;8.18;;;18.00;99.90;;;;;;4934982;29;20250;-80
2021/07/14 10:34:17;;;;;;;11.02;7.32;;;17.90;99.90;;;;;;4935086;29;20223;-80
2021/07/14 10:36:43;;;;;;;11.10;8.18;;;17.90;99.90;;;;;;4935326;29;20517;-81
2021/07/14 10:39:12;;;;;;;15.10;9.68;;;18.00;99.90;;;;;;4935410;29;20183;-80
2021/07/14 10:41:39;;;;;;;9.38;8.25;;;18.00;99.90;;;;;;4935095;29;20177;-80
2021/07/14 10:44:05;;;;;;;9.25;7.70;;;18.00;99.90;;;;;;4934886;29;20263;-79
2021/07/14 10:46:33;;;;;;;9.77;8.23;;;18.00;99.90;;;;;;4934645;29;20234;-80
2021/07/14 10:49:00;;;;;;;8.75;7.32;;;18.10;99.90;;;;;;4934597;29;20186;-81
2021/07/14 10:51:28;;;;;;;15.68;8.55;;;18.30;99.90;;;;;;4934702;29;20173;-80
2021/07/14 10:54:02;;;;;;;10.52;7.40;;;18.30;99.90;;;;;;4934729;29;20692;-81
2021/07/14 10:56:35;;;;;;;7.47;6.78;;;18.10;99.90;;;;;;4934905;29;20182;-81
2021/07/14 10:59:03;;;;;;;11.95;7.68;;;18.00;99.90;;;;;;4934858;29;20550;-80
2021/07/14 11:01:39;;;;;;;10.00;7.40;;;17.90;99.90;;;;;;4935095;29;20299;-80
2021/07/14 11:04:33;;;;;;;9.27;6.97;;;17.90;99.90;;;;;;4934185;29;20199;-82
2021/07/14 11:07:07;;;;;;;9.82;6.60;;;17.90;99.90;;;;;;4934746;29;20621;-81
2021/07/14 11:09:39;;;;;;;7.28;5.32;;;17.70;99.90;;;;;;4934832;29;20175;-83
2021/07/14 11:12:07;;;;;;;6.82;4.93;;;17.70;99.90;;;;;;4934667;29;20656;-82
2021/07/14 11:14:35;;;;;;;8.40;5.30;;;17.70;99.90;;;;;;4934213;29;20215;-83
2021/07/14 11:17:02;;;;;;;5.30;4.80;;;17.70;99.90;;;;;;4935079;29;20189;-84
2021/07/14 11:19:49;;;;;;;7.20;4.55;;;17.80;99.90;;;;;;4933266;29;20667;-82
2021/07/14 11:22:17;;;;;;;5.25;4.85;;;17.80;99.90;;;;;;4934321;29;20167;-84
2021/07/14 11:24:42;;;;;;;5.13;4.40;;;17.80;99.90;;;;;;4934923;29;20234;-83
2021/07/14 11:27:26;;;;;;;5.57;4.35;;;17.70;99.90;;;;;;4934337;29;20198;-82
2021/07/14 11:30:04;;;;;;;6.53;5.60;;;17.80;99.90;;;;;;4933240;29;20225;-81
2021/07/14 11:32:38;;;;;;;9.05;4.53;;;17.80;99.90;;;;;;4933412;29;20544;-84
2021/07/14 11:35:16;;;;;;;5.55;4.55;;;17.80;99.90;;;;;;4935708;29;20222;-84
2021/07/14 11:37:55;;;;;;;5.63;4.68;;;17.80;99.90;;;;;;4937061;29;20270;-82
2021/07/14 11:40:21;;;;;;;5.28;4.72;;;17.80;99.90;;;;;;4937450;29;20186;-82
2021/07/14 11:43:00;;;;;;;6.63;5.63;;;17.70;99.90;;;;;;4937148;29;20222;-81
2021/07/14 11:45:26;;;;;;;8.48;5.45;;;17.70;99.90;;;;;;4936908;29;20210;-82
2021/07/14 11:48:04;;;;;;;6.05;5.55;;;17.80;99.90;;;;;;4937151;29;20189;-82
2021/07/14 11:50:53;;;;;;;8.32;5.53;;;17.80;99.90;;;;;;4937190;29;20204;-83
2021/07/14 11:53:25;;;;;;;8.02;5.35;;;17.90;99.90;;;;;;4936834;29;20203;-83
2021/07/14 11:56:12;;;;;;;5.68;5.13;;;18.20;99.90;;;;;;4936968;29;20183;-83
2021/07/14 11:59:08;;;;;;;6.35;5.57;;;18.40;99.90;;;;;;4938053;29;20175;-83
2021/07/14 12:01:34;;;;;;;10.07;5.95;;;18.50;99.90;;;;;;4936749;29;20182;-82
2021/07/14 12:04:00;;;;;;;6.78;4.70;;;18.50;99.90;;;;;;4936689;29;20191;-82
2021/07/14 12:06:35;;;;;;;5.95;5.18;;;18.70;99.90;;;;;;4938044;29;20768;-82
2021/07/14 12:09:12;;;;;;;13.93;5.10;;;18.80;99.90;;;;;;4936688;29;20175;-82
2021/07/14 12:11:49;;;;;;;9.63;4.90;;;18.80;99.90;;;;;;4936541;29;20179;-85
2021/07/14 12:14:16;;;;;;;4.75;4.28;;;18.80;99.90;;;;;;4936267;29;20277;-83
2021/07/14 12:16:46;;;;;;;14.65;5.43;;;18.90;99.90;;;;;;4937769;29;20549;-82
2021/07/14 12:19:18;;;;;;;5.75;4.00;;;18.80;99.90;;;;;;4936090;29;20183;-82
2021/07/14 12:21:43;;;;;;;7.35;4.28;;;18.60;99.90;;;;;;4937162;29;20215;-83
2021/07/14 12:24:26;;;;;;;4.75;4.25;;;18.60;99.90;;;;;;4937255;29;20590;-83
2021/07/14 12:27:04;;;;;;;10.35;4.95;;;18.60;99.90;;;;;;4920784;29;20275;-87
2021/07/14 12:29:31;;;;;;;5.22;4.70;;;18.70;99.90;;;;;;4937391;29;20171;-82
2021/07/14 12:31:57;;;;;;;13.48;4.78;;;18.60;99.90;;;;;;4937074;29;20636;-82
2021/07/14 12:34:28;;;;;;;10.60;3.92;;;18.70;99.90;;;;;;4935917;29;20250;-83
2021/07/14 12:36:55;;;;;;;6.22;3.70;;;18.90;99.90;;;;;;4935791;29;20175;-84
2021/07/14 12:39:28;;;;;;;5.03;3.67;;;18.90;99.90;;;;;;4936005;29;20172;-79
2021/07/14 12:41:57;;;;;;;3.97;3.10;;;18.80;99.90;;;;;;4937399;29;20640;-80
2021/07/14 12:44:23;;;;;;;3.40;3.10;;;19.00;99.90;;;;;;4936938;29;20191;-79
2021/07/14 12:46:50;;;;;;;4.20;3.15;;;18.90;99.90;;;;;;4935929;29;20171;-79
2021/07/14 12:49:18;;;;;;;8.27;4.20;;;18.80;99.90;;;;;;4936731;29;20180;-79
2021/07/14 12:52:07;;;;;;;4.50;3.35;;;18.70;99.90;;;;;;4937289;29;20199;-80
2021/07/14 12:54:34;;;;;;;3.75;3.10;;;18.70;99.90;;;;;;4937050;29;20211;-80